Terminal Aerodrome Forecast
Issued by NWS

Home | Current Version | Previous Version | Text Only | Print | Product List | Glossary On
Versions: 1 2 3 4 5 6 7 8 9 10 11 12 13 14
000
FTUS43 KPAH 271700
TAFCGI
TAF
KCGI 271729Z 2718/2818 VRB03KT P6SM SCT035
     FM280100 00000KT P6SM SCT250
     FM280700 00000KT 3SM BR SCT250
      TEMPO 2809/2813 1/4SM FG VV001
     FM281400 12003KT 6SM HZ SCT050=

USA.gov is the U.S. government's official web portal to all federal, state and local government web resources and services.